Terminal Aerodrome Forecast
Issued by NWS Twin Cities, MN

Home | Current Version | Previous Version | Text Only | Print | Product List | Glossary Off
Versions: 1 2 3 4 5 6 7 8 9 10 11 12 13 14 15 16 17 18 19

000
FTUS43 KMPX 211138
TAFEAU
TAF
KEAU 211138Z 2112/2212 00000KT P6SM SCT001 SCT150
     FM211400 12004KT P6SM SCT150
     FM212000 16009KT P6SM BKN150
     FM212200 16008KT P6SM VCSH BKN100
     FM220300 16006KT P6SM VCSH BKN050
     FM220600 17006KT P6SM BKN020=

USA.gov is the U.S. government's official web portal to all federal, state and local government web resources and services.